Terminal Aerodrome Forecast
Issued by NWS Upton, NY

Home | Current Version | Previous Version | Text Only | Print | Product List | Glossary On
Versions: 1 2 3 4 5 6 7 8 9 10 11 12 13 14 15 16 17 18 19 20 21 22 23 24 25 26 27 28 29 30 31 32 33 34 35 36
000
FTUS41 KOKX 042145 AAE
TAFEWR
TAF AMD
KEWR 042145Z 0422/0524 02012KT P6SM VCSH SCT009 OVC012
      TEMPO 0422/0424 BKN009
     FM050200 02012KT 6SM -DZ OVC008
     FM051100 02013G20KT 6SM -DZ OVC008
     FM051400 03012G18KT P6SM OVC015
     FM052100 03009KT P6SM OVC025=

USA.gov is the U.S. government's official web portal to all federal, state and local government web resources and services.